Time;durP1;ratioP1;P1;durP2;ratioP2;P2;SDS_P1;SDS_P2;PMS_P1;PMS_P2;Temp;Humidity;BMP_temperature;BMP_pressure;BME280_temperature;BME280_humidity;BME280_pressure;Samples;Min_cycle;Max_cycle;Signal;HPM_P1;HPM_P2
2024/03/12 00:01:08;;;;;;;91.53;60.30;;;5.90;94.60;;;;;;5077038;28;20217;-86
2024/03/12 00:03:42;;;;;;;93.00;61.63;;;5.90;94.50;;;;;;5094934;28;20195;-87
2024/03/12 00:06:09;;;;;;;91.97;60.93;;;5.90;94.60;;;;;;5076867;28;20202;-86
2024/03/12 00:08:35;;;;;;;89.33;59.17;;;5.90;94.60;;;;;;5076882;28;20770;-86
2024/03/12 00:11:01;;;;;;;93.40;61.03;;;5.90;94.60;;;;;;5094853;28;20265;-86
2024/03/12 00:13:26;;;;;;;97.37;61.13;;;5.90;94.60;;;;;;5076687;28;20219;-87
2024/03/12 00:15:52;;;;;;;91.23;60.10;;;6.00;94.60;;;;;;5076715;28;20525;-87
2024/03/12 00:18:18;;;;;;;89.93;61.73;;;6.00;94.60;;;;;;5076622;28;20177;-87
2024/03/12 00:20:45;;;;;;;87.10;61.07;;;6.00;94.60;;;;;;5076699;28;20175;-86
2024/03/12 00:23:11;;;;;;;85.63;58.70;;;6.00;94.60;;;;;;5076734;28;20330;-87
2024/03/12 00:25:37;;;;;;;88.03;58.63;;;6.10;94.60;;;;;;5094970;28;20167;-87
2024/03/12 00:28:05;;;;;;;78.87;57.57;;;6.10;94.60;;;;;;5094761;28;20589;-87
2024/03/12 00:30:31;;;;;;;81.00;57.60;;;6.10;94.60;;;;;;5094408;28;20574;-87
2024/03/12 00:32:57;;;;;;;76.27;53.00;;;6.10;94.60;;;;;;5094346;28;20186;-87
2024/03/12 00:35:25;;;;;;;80.90;54.27;;;6.10;94.60;;;;;;5094361;28;20592;-87
2024/03/12 00:37:56;;;;;;;72.57;51.70;;;6.20;94.50;;;;;;5076328;28;20170;-87
2024/03/12 00:40:22;;;;;;;76.17;52.83;;;6.20;94.50;;;;;;5076046;28;20178;-87
2024/03/12 00:42:50;;;;;;;75.20;51.70;;;6.20;94.40;;;;;;5076243;28;20203;-87
2024/03/12 00:45:25;;;;;;;68.40;51.33;;;6.20;94.30;;;;;;5076008;28;20202;-87
2024/03/12 00:47:52;;;;;;;69.87;50.83;;;6.20;94.30;;;;;;5076161;28;20163;-87
2024/03/12 00:50:18;;;;;;;73.03;51.23;;;6.20;94.30;;;;;;5094276;28;20170;-87
2024/03/12 00:52:43;;;;;;;68.27;50.20;;;6.20;94.20;;;;;;5093660;28;20203;-87
2024/03/12 00:55:09;;;;;;;71.67;50.00;;;6.20;94.20;;;;;;5076062;28;20177;-87
2024/03/12 00:57:38;;;;;;;70.00;50.33;;;6.30;94.20;;;;;;5075869;28;20178;-87
2024/03/12 01:00:16;;;;;;;72.73;49.67;;;6.30;94.10;;;;;;5093937;28;20167;-87
2024/03/12 01:02:44;;;;;;;65.77;49.00;;;6.30;94.10;;;;;;5094155;28;20195;-87
2024/03/12 01:05:10;;;;;;;70.43;50.03;;;6.30;94.00;;;;;;5075593;28;20230;-87
2024/03/12 01:07:38;;;;;;;68.13;48.43;;;6.30;93.90;;;;;;5093811;28;20194;-87
2024/03/12 01:10:05;;;;;;;68.40;51.63;;;6.20;93.80;;;;;;5075597;28;20551;-87
2024/03/12 01:12:31;;;;;;;66.47;48.93;;;6.20;93.80;;;;;;5093888;28;20614;-87
2024/03/12 01:14:57;;;;;;;69.17;51.13;;;6.20;93.80;;;;;;5093841;28;20220;-87
2024/03/12 01:17:22;;;;;;;68.13;48.37;;;6.20;93.80;;;;;;5093668;28;20171;-87
2024/03/12 01:19:48;;;;;;;73.87;48.70;;;6.20;93.70;;;;;;5075701;28;20559;-87
2024/03/12 01:22:14;;;;;;;67.50;50.20;;;6.00;93.60;;;;;;5093806;28;20299;-87
2024/03/12 01:24:42;;;;;;;67.40;48.87;;;6.00;93.60;;;;;;5093531;28;20195;-86
2024/03/12 01:27:10;;;;;;;63.67;50.03;;;5.90;93.60;;;;;;5075410;28;20181;-87
2024/03/12 01:29:37;;;;;;;72.83;50.13;;;5.80;93.60;;;;;;5093865;28;20167;-87
2024/03/12 01:32:06;;;;;;;69.77;49.23;;;5.80;93.70;;;;;;5075340;28;20209;-87
2024/03/12 01:34:33;;;;;;;67.27;49.57;;;5.70;93.60;;;;;;5093474;28;20635;-87
2024/03/12 01:36:59;;;;;;;66.07;49.47;;;5.60;93.60;;;;;;5075731;28;20626;-87
2024/03/12 01:39:26;;;;;;;66.90;48.20;;;5.50;93.60;;;;;;5075584;28;20189;-87
2024/03/12 01:41:55;;;;;;;73.50;58.23;;;5.40;93.60;;;;;;5093256;28;20194;-87
2024/03/12 01:44:21;;;;;;;75.07;57.10;;;5.30;93.50;;;;;;5075186;28;20206;-87
2024/03/12 01:46:47;;;;;;;74.07;57.87;;;5.20;93.50;;;;;;5075404;28;20206;-87
2024/03/12 01:49:14;;;;;;;69.90;55.03;;;5.20;93.60;;;;;;5076139;28;20525;-87
2024/03/12 01:51:41;;;;;;;70.67;56.23;;;5.20;93.50;;;;;;5075152;28;20186;-87
2024/03/12 01:54:08;;;;;;;70.47;55.30;;;5.10;93.50;;;;;;5075485;28;20685;-86
2024/03/12 01:56:35;;;;;;;73.90;57.93;;;5.00;93.50;;;;;;5075385;28;20536;-87
2024/03/12 01:59:01;;;;;;;75.03;57.17;;;4.90;93.50;;;;;;5075263;28;20181;-87
2024/03/12 02:01:27;;;;;;;74.33;58.80;;;4.90;93.50;;;;;;5093259;28;20178;-87
2024/03/12 02:03:52;;;;;;;76.00;59.00;;;4.80;93.50;;;;;;5077282;28;20212;-87
2024/03/12 02:06:21;;;;;;;76.57;59.73;;;4.90;93.60;;;;;;5079098;28;20178;-87
2024/03/12 02:08:52;;;;;;;74.20;58.07;;;4.80;93.60;;;;;;5079191;28;20182;-87
2024/03/12 02:11:19;;;;;;;77.87;60.77;;;4.80;93.60;;;;;;5079204;28;20185;-87
2024/03/12 02:13:45;;;;;;;79.90;59.00;;;4.80;93.60;;;;;;5096981;28;20247;-87
2024/03/12 02:16:11;;;;;;;75.83;58.87;;;4.70;93.60;;;;;;5078938;28;20185;-86
2024/03/12 02:18:37;;;;;;;83.70;59.70;;;4.70;93.60;;;;;;5097236;28;20186;-87
2024/03/12 02:21:04;;;;;;;79.53;60.30;;;4.60;93.60;;;;;;5097302;28;20181;-87
2024/03/12 02:23:37;;;;;;;84.33;60.33;;;4.60;93.60;;;;;;5096790;28;20198;-87
2024/03/12 02:26:04;;;;;;;85.50;60.33;;;4.60;93.70;;;;;;5078972;28;20536;-88
2024/03/12 02:28:30;;;;;;;77.40;58.33;;;4.70;93.80;;;;;;5078773;28;20591;-87
2024/03/12 02:30:56;;;;;;;84.07;61.57;;;4.60;93.70;;;;;;5097163;28;20167;-86
2024/03/12 02:33:21;;;;;;;79.37;59.20;;;4.50;93.70;;;;;;5078583;28;20205;-87
2024/03/12 02:35:47;;;;;;;83.47;62.00;;;4.30;93.70;;;;;;5096656;28;20225;-87
2024/03/12 02:38:12;;;;;;;93.30;62.73;;;4.30;93.80;;;;;;5078587;28;20173;-88
2024/03/12 02:40:38;;;;;;;93.23;62.60;;;4.40;93.90;;;;;;5078635;28;20206;-87
2024/03/12 02:43:04;;;;;;;83.67;58.57;;;4.40;94.00;;;;;;5078422;28;20190;-87
2024/03/12 02:45:30;;;;;;;81.13;57.93;;;4.30;93.90;;;;;;5096540;28;20215;-88
2024/03/12 02:47:55;;;;;;;95.70;59.07;;;4.10;93.90;;;;;;5096567;28;20172;-88
2024/03/12 02:50:21;;;;;;;105.00;61.80;;;4.00;94.00;;;;;;5108410;22;20288;-88
2024/03/12 02:52:47;;;;;;;167.37;63.43;;;3.90;94.00;;;;;;5058156;28;20225;-88
2024/03/12 02:55:13;;;;;;;242.17;67.03;;;3.90;94.20;;;;;;5058107;28;20175;-88
2024/03/12 02:57:39;;;;;;;232.50;63.70;;;3.90;94.20;;;;;;5058164;28;20180;-88
2024/03/12 03:00:11;;;;;;;254.20;63.07;;;3.90;94.30;;;;;;5057986;28;20204;-88
2024/03/12 03:02:37;;;;;;;242.47;59.33;;;4.00;94.50;;;;;;5058085;28;20177;-88
2024/03/12 03:05:06;;;;;;;237.03;60.13;;;4.00;94.60;;;;;;5057822;28;20206;-88
2024/03/12 03:07:32;;;;;;;230.23;59.77;;;4.10;94.70;;;;;;5057778;28;20167;-89
2024/03/12 03:09:57;;;;;;;215.83;59.47;;;4.10;94.80;;;;;;5057778;28;20215;-89
2024/03/12 03:12:23;;;;;;;236.73;61.70;;;4.20;94.90;;;;;;5057911;28;20287;-89
2024/03/12 03:14:48;;;;;;;305.90;65.93;;;4.20;94.90;;;;;;5075780;28;20174;-89
2024/03/12 03:17:14;;;;;;;329.47;65.43;;;4.20;95.00;;;;;;5057956;28;20686;-88
2024/03/12 03:19:40;;;;;;;337.63;68.93;;;4.20;95.10;;;;;;5057601;28;20692;-89
2024/03/12 03:22:07;;;;;;;318.13;72.30;;;4.10;95.10;;;;;;5057611;28;20188;-89
2024/03/12 03:24:36;;;;;;;396.23;72.20;;;4.10;95.10;;;;;;5057658;28;20203;-89
2024/03/12 03:27:03;;;;;;;354.47;70.63;;;4.20;95.20;;;;;;5057518;28;20178;-89
2024/03/12 03:29:31;;;;;;;389.93;73.43;;;4.20;95.20;;;;;;5057359;28;20197;-89
2024/03/12 03:31:58;;;;;;;420.40;80.87;;;4.20;95.30;;;;;;5057420;28;20266;-89
2024/03/12 03:34:31;;;;;;;350.03;69.70;;;4.20;95.30;;;;;;5075174;28;20173;-89
2024/03/12 03:36:58;;;;;;;349.77;76.10;;;4.10;95.30;;;;;;5057453;28;20220;-89
2024/03/12 03:39:27;;;;;;;325.43;70.37;;;4.10;95.40;;;;;;5075190;28;20198;-89
2024/03/12 03:41:55;;;;;;;270.83;66.17;;;4.10;95.40;;;;;;5057263;28;20178;-89
2024/03/12 03:44:20;;;;;;;225.23;63.03;;;4.10;95.40;;;;;;5057241;28;20288;-89
2024/03/12 03:46:46;;;;;;;265.70;61.37;;;4.00;95.40;;;;;;5057910;28;20205;-89
2024/03/12 03:49:12;;;;;;;240.47;63.80;;;4.00;95.40;;;;;;5074961;28;20192;-89
2024/03/12 03:51:37;;;;;;;263.20;64.33;;;3.90;95.40;;;;;;5058014;28;20172;-89
2024/03/12 03:54:03;;;;;;;246.93;61.90;;;3.90;95.40;;;;;;5056933;28;20224;-90
2024/03/12 03:56:29;;;;;;;251.37;63.37;;;3.90;95.50;;;;;;5056965;28;20178;-89
2024/03/12 03:58:56;;;;;;;239.77;60.17;;;3.80;95.40;;;;;;5056813;28;20196;-89
2024/03/12 04:01:23;;;;;;;240.17;59.33;;;3.80;95.50;;;;;;5074676;28;20167;-89
2024/03/12 04:03:52;;;;;;;243.90;60.27;;;3.80;95.50;;;;;;5074645;28;20246;-90
2024/03/12 04:06:21;;;;;;;216.80;59.23;;;3.80;95.50;;;;;;5056726;28;20182;-90
2024/03/12 04:08:50;;;;;;;224.33;65.80;;;3.70;95.50;;;;;;5056716;28;20177;-90
2024/03/12 04:11:20;;;;;;;220.43;65.57;;;3.70;95.50;;;;;;5056620;28;20197;-90
2024/03/12 04:13:54;;;;;;;246.60;70.13;;;3.70;95.50;;;;;;5056550;28;20547;-89
2024/03/12 04:16:20;;;;;;;263.23;69.03;;;3.60;95.50;;;;;;5056637;28;20171;-89
2024/03/12 04:18:46;;;;;;;275.83;68.17;;;3.70;95.60;;;;;;5056665;28;20183;-89
2024/03/12 04:21:11;;;;;;;276.93;65.70;;;3.70;95.60;;;;;;5074587;28;20684;-89
2024/03/12 04:23:38;;;;;;;193.13;60.33;;;3.70;95.60;;;;;;5057106;28;20207;-89
2024/03/12 04:26:04;;;;;;;271.63;68.23;;;3.70;95.60;;;;;;5073706;28;20187;-89
2024/03/12 04:28:29;;;;;;;290.50;65.47;;;3.60;95.60;;;;;;5056361;28;20526;-89
2024/03/12 04:30:55;;;;;;;243.53;64.27;;;3.50;95.60;;;;;;5074026;28;20751;-90
2024/03/12 04:33:21;;;;;;;203.40;60.33;;;3.50;95.60;;;;;;5056418;28;20175;-89
2024/03/12 04:35:47;;;;;;;249.67;67.23;;;3.40;95.60;;;;;;5056417;28;20670;-89
2024/03/12 04:38:14;;;;;;;244.33;68.53;;;3.40;95.60;;;;;;5056561;28;20219;-89
2024/03/12 04:40:40;;;;;;;246.10;70.33;;;3.40;95.70;;;;;;5056437;28;20206;-89
2024/03/12 04:43:05;;;;;;;237.37;64.83;;;3.40;95.70;;;;;;5056219;28;20527;-90
2024/03/12 04:45:31;;;;;;;229.33;68.33;;;3.50;95.70;;;;;;5055886;28;20206;-90
2024/03/12 04:47:57;;;;;;;161.30;63.27;;;3.50;95.70;;;;;;5056063;28;20186;-90
2024/03/12 04:50:22;;;;;;;154.83;63.33;;;3.50;95.70;;;;;;5055767;28;20210;-89
2024/03/12 04:52:52;;;;;;;153.53;65.07;;;3.50;95.70;;;;;;5055772;28;20259;-90
2024/03/12 04:55:17;;;;;;;161.23;64.70;;;3.50;95.70;;;;;;5055777;28;20175;-90
2024/03/12 04:57:44;;;;;;;164.23;64.30;;;3.50;95.70;;;;;;5055755;28;20595;-90
2024/03/12 05:00:19;;;;;;;178.70;66.10;;;3.50;95.70;;;;;;5055815;28;20222;-90
2024/03/12 05:02:45;;;;;;;156.67;64.73;;;3.60;95.80;;;;;;5056622;28;20532;-90
2024/03/12 05:05:18;;;;;;;125.80;61.30;;;3.50;95.70;;;;;;5055822;28;20202;-89
2024/03/12 05:07:44;;;;;;;142.67;62.67;;;3.50;95.80;;;;;;5055699;28;20252;-89
2024/03/12 05:10:11;;;;;;;113.93;61.37;;;3.50;95.70;;;;;;5055827;28;20198;-90
2024/03/12 05:12:36;;;;;;;113.60;61.13;;;3.50;95.80;;;;;;5055554;28;20178;-90
2024/03/12 05:15:03;;;;;;;125.33;61.50;;;3.60;95.80;;;;;;5073351;28;20177;-90
2024/03/12 05:17:28;;;;;;;150.77;69.30;;;3.60;95.80;;;;;;5073303;28;20255;-89
2024/03/12 05:19:54;;;;;;;121.53;62.93;;;3.60;95.80;;;;;;5055304;28;20298;-89
2024/03/12 05:22:19;;;;;;;122.03;63.03;;;3.60;95.80;;;;;;5055862;28;20180;-90
2024/03/12 05:24:45;;;;;;;119.90;62.17;;;3.70;95.80;;;;;;5073557;28;20563;-89
2024/03/12 05:27:15;;;;;;;102.83;62.47;;;3.70;95.80;;;;;;5055345;28;20235;-90
2024/03/12 05:29:52;;;;;;;96.63;57.60;;;3.60;95.80;;;;;;5073172;28;20184;-89
2024/03/12 05:32:18;;;;;;;107.17;57.93;;;3.70;95.80;;;;;;5055336;28;20160;-90
2024/03/12 05:34:47;;;;;;;96.87;59.13;;;3.70;95.80;;;;;;5055361;28;20734;-90
2024/03/12 05:37:40;;;;;;;94.77;58.50;;;3.70;95.80;;;;;;5054899;28;20182;-90
2024/03/12 05:40:16;;;;;;;95.23;57.23;;;3.70;95.80;;;;;;5055883;28;20197;-90
2024/03/12 05:48:18;;;;;;;83.17;57.77;;;3.70;95.80;;;;;;5073603;28;20211;-90
2024/03/12 05:50:44;;;;;;;83.80;54.73;;;3.80;95.90;;;;;;5073232;28;20228;-90
2024/03/12 05:53:10;;;;;;;84.00;56.37;;;3.80;95.80;;;;;;5055140;28;20175;-90
2024/03/12 05:55:36;;;;;;;85.60;56.13;;;3.90;95.90;;;;;;5055156;28;20187;-90
2024/03/12 05:58:04;;;;;;;85.17;57.10;;;3.80;95.80;;;;;;5073416;28;20178;-90
2024/03/12 06:00:30;;;;;;;82.77;56.20;;;3.80;95.80;;;;;;5055356;28;20202;-90
2024/03/12 06:02:55;;;;;;;82.53;57.67;;;3.90;95.90;;;;;;5055353;28;20186;-90
2024/03/12 06:05:21;;;;;;;78.10;54.43;;;3.90;95.80;;;;;;5054965;28;20204;-90
2024/03/12 06:07:52;;;;;;;79.50;56.13;;;3.90;95.80;;;;;;5073204;28;20177;-90
2024/03/12 06:10:18;;;;;;;79.73;55.90;;;4.00;95.80;;;;;;5054965;28;20194;-89
2024/03/12 06:12:43;;;;;;;75.90;54.00;;;4.00;95.90;;;;;;5055233;28;20181;-90
2024/03/12 06:15:09;;;;;;;74.40;54.47;;;4.00;95.90;;;;;;5072780;28;20171;-90
2024/03/12 06:17:36;;;;;;;73.13;54.13;;;4.10;95.90;;;;;;5072741;28;20178;-90
2024/03/12 06:20:05;;;;;;;70.83;54.67;;;4.20;95.90;;;;;;5054984;28;20271;-90
2024/03/12 06:22:31;;;;;;;69.03;52.47;;;4.20;95.80;;;;;;5072689;28;20168;-90
2024/03/12 06:24:57;;;;;;;70.60;52.63;;;4.20;95.80;;;;;;5054634;28;20685;-90
2024/03/12 06:27:23;;;;;;;64.43;50.83;;;4.30;95.80;;;;;;5054698;28;20186;-90
2024/03/12 06:29:51;;;;;;;65.43;50.80;;;4.30;95.80;;;;;;5054770;28;20210;-90
2024/03/12 06:32:19;;;;;;;63.47;51.23;;;4.30;95.80;;;;;;5054721;28;20179;-89
2024/03/12 06:34:45;;;;;;;67.10;51.00;;;4.30;95.80;;;;;;5054716;28;20284;-90
2024/03/12 06:37:11;;;;;;;61.70;49.87;;;4.30;95.80;;;;;;5054748;28;20190;-90
2024/03/12 06:39:41;;;;;;;61.50;51.80;;;4.40;95.70;;;;;;5072838;28;20202;-90
2024/03/12 06:42:07;;;;;;;59.97;52.03;;;4.40;95.70;;;;;;5054554;28;20717;-89
2024/03/12 06:44:40;;;;;;;57.33;50.40;;;4.40;95.70;;;;;;5054538;28;20587;-90
2024/03/12 06:47:07;;;;;;;60.60;50.93;;;4.50;95.70;;;;;;5072440;28;20174;-90
2024/03/12 06:49:33;;;;;;;60.80;54.23;;;4.40;95.60;;;;;;5055946;28;20210;-90
2024/03/12 06:51:59;;;;;;;61.30;54.80;;;4.40;95.50;;;;;;5058254;28;20174;-89
2024/03/12 06:54:26;;;;;;;61.90;54.67;;;4.40;95.50;;;;;;5058076;28;20183;-90
2024/03/12 06:56:53;;;;;;;59.27;50.13;;;4.40;95.50;;;;;;5058213;28;20218;-90
2024/03/12 06:59:22;;;;;;;59.23;51.57;;;4.40;95.50;;;;;;5075836;28;20678;-89
2024/03/12 07:01:53;;;;;;;65.90;57.50;;;4.40;95.40;;;;;;5042166;28;20206;-90
2024/03/12 07:04:23;;;;;;;59.37;53.27;;;4.50;95.40;;;;;;5057977;28;20210;-90
2024/03/12 07:06:50;;;;;;;60.23;52.73;;;4.40;95.40;;;;;;5058263;28;20233;-90
2024/03/12 07:09:26;;;;;;;56.67;50.77;;;4.50;95.40;;;;;;5057926;28;20192;-90
2024/03/12 07:11:54;;;;;;;59.33;52.97;;;4.40;95.40;;;;;;5057972;28;20639;-90
2024/03/12 07:14:27;;;;;;;60.43;53.93;;;4.60;95.40;;;;;;5075700;28;20551;-90
2024/03/12 07:16:53;;;;;;;57.47;51.43;;;4.70;95.40;;;;;;5057865;28;20163;-90
2024/03/12 07:19:22;;;;;;;59.10;52.90;;;4.70;95.40;;;;;;5057573;28;20198;-90
2024/03/12 07:21:48;;;;;;;56.97;51.07;;;4.70;95.40;;;;;;5057672;28;20175;-90
2024/03/12 07:24:14;;;;;;;58.37;52.47;;;4.70;95.40;;;;;;5057572;28;20563;-90
2024/03/12 07:26:39;;;;;;;56.37;50.67;;;4.70;95.40;;;;;;5057720;28;20177;-90
2024/03/12 07:29:07;;;;;;;55.80;49.63;;;4.60;95.30;;;;;;5075461;28;20195;-90
2024/03/12 07:31:34;;;;;;;56.77;50.67;;;4.50;95.30;;;;;;5057408;28;20201;-90
2024/03/12 07:34:00;;;;;;;54.97;49.07;;;4.50;95.30;;;;;;5075386;28;20791;-90
2024/03/12 07:36:29;;;;;;;54.77;49.13;;;4.60;95.40;;;;;;5075313;28;20171;-90
2024/03/12 07:38:56;;;;;;;55.50;49.70;;;4.60;95.40;;;;;;5075449;28;20258;-90
2024/03/12 07:41:23;;;;;;;53.63;48.07;;;4.60;95.40;;;;;;5057371;28;20181;-90
2024/03/12 07:43:49;;;;;;;56.17;50.47;;;4.70;95.40;;;;;;5057460;28;20191;-90
2024/03/12 07:46:15;;;;;;;57.17;51.20;;;4.80;95.50;;;;;;5057642;28;20180;-90
2024/03/12 07:48:41;;;;;;;55.77;50.20;;;4.80;95.50;;;;;;5057384;28;20225;-91
2024/03/12 07:51:09;;;;;;;56.33;50.63;;;4.80;95.50;;;;;;5056988;28;20203;-92
2024/03/12 07:53:35;;;;;;;57.63;51.43;;;4.80;95.50;;;;;;5057883;28;20175;-90
2024/03/12 07:56:01;;;;;;;57.37;51.37;;;4.80;95.50;;;;;;5058619;28;20635;-91
2024/03/12 07:58:30;;;;;;;61.07;54.77;;;4.80;95.50;;;;;;5057170;28;20183;-90
2024/03/12 08:00:55;;;;;;;60.83;54.63;;;4.80;95.60;;;;;;5055915;28;20577;-90
2024/03/12 08:03:21;;;;;;;60.37;54.37;;;4.90;95.60;;;;;;5056987;28;20171;-90
2024/03/12 08:05:47;;;;;;;60.37;54.13;;;5.00;95.70;;;;;;5056761;28;20203;-90
2024/03/12 08:08:13;;;;;;;57.53;51.87;;;5.10;95.70;;;;;;5056858;28;20198;-90
2024/03/12 08:10:39;;;;;;;59.83;53.53;;;5.00;95.50;;;;;;5057275;28;20679;-90
2024/03/12 08:13:05;;;;;;;61.87;55.43;;;4.90;95.50;;;;;;5056955;28;20183;-90
2024/03/12 08:15:31;;;;;;;61.30;55.00;;;5.00;95.70;;;;;;5056859;28;20206;-90
2024/03/12 08:17:57;;;;;;;57.97;52.03;;;5.00;95.60;;;;;;5074502;28;20201;-90
2024/03/12 08:20:23;;;;;;;51.83;46.43;;;5.10;95.70;;;;;;5056533;28;20742;-90
2024/03/12 08:22:48;;;;;;;54.80;48.43;;;5.20;95.70;;;;;;5056507;28;20171;-90
2024/03/12 08:25:16;;;;;;;52.23;46.73;;;5.30;95.70;;;;;;5074596;28;20659;-90
2024/03/12 08:27:47;;;;;;;55.43;49.70;;;5.20;95.60;;;;;;5056537;28;20606;-90
2024/03/12 08:30:13;;;;;;;52.00;46.47;;;5.30;95.70;;;;;;5074619;28;20241;-90
2024/03/12 08:32:41;;;;;;;56.37;49.77;;;5.20;95.60;;;;;;5074167;28;20515;-90
2024/03/12 08:35:10;;;;;;;54.30;48.70;;;5.30;95.60;;;;;;5056381;28;20256;-89
2024/03/12 08:37:37;;;;;;;52.93;47.23;;;5.40;95.60;;;;;;5056229;28;20186;-90
2024/03/12 08:40:04;;;;;;;56.17;49.53;;;5.30;95.50;;;;;;5056657;28;20199;-90
2024/03/12 08:42:31;;;;;;;57.83;51.23;;;5.20;95.50;;;;;;5056182;28;20316;-90
2024/03/12 08:44:56;;;;;;;62.30;52.57;;;5.20;95.50;;;;;;5056814;28;20202;-91
2024/03/12 08:47:23;;;;;;;65.33;51.97;;;5.20;95.50;;;;;;5056338;28;20175;-91
2024/03/12 08:49:49;;;;;;;63.53;53.00;;;5.20;95.50;;;;;;5055775;28;20210;-89
2024/03/12 08:52:15;;;;;;;70.00;54.10;;;5.30;95.50;;;;;;5056246;28;20229;-90
2024/03/12 08:54:41;;;;;;;62.37;53.03;;;5.30;95.50;;;;;;5056691;28;20179;-90
2024/03/12 08:57:07;;;;;;;70.50;55.50;;;5.30;95.60;;;;;;5055823;28;20202;-90
2024/03/12 08:59:33;;;;;;;69.43;56.30;;;5.40;95.60;;;;;;5055994;28;20223;-89
2024/03/12 09:01:59;;;;;;;71.00;57.27;;;5.40;95.60;;;;;;5056044;28;20179;-91
2024/03/12 09:04:27;;;;;;;71.13;55.83;;;5.50;95.60;;;;;;5056758;28;20195;-88
2024/03/12 09:06:53;;;;;;;76.00;57.00;;;5.50;95.60;;;;;;5073822;28;20168;-90
2024/03/12 09:09:21;;;;;;;79.80;59.53;;;5.60;95.70;;;;;;5055616;28;20190;-90
2024/03/12 09:11:47;;;;;;;77.77;59.00;;;5.60;95.70;;;;;;5073408;28;20218;-90
2024/03/12 09:14:13;;;;;;;75.23;58.23;;;5.60;95.70;;;;;;5055715;28;20175;-90
2024/03/12 09:16:39;;;;;;;79.63;60.03;;;5.70;95.70;;;;;;5056112;28;20547;-90
2024/03/12 09:19:05;;;;;;;80.80;59.27;;;5.80;95.70;;;;;;5055604;28;20658;-90
2024/03/12 09:21:32;;;;;;;82.10;58.43;;;5.80;95.70;;;;;;5056227;28;20211;-92
2024/03/12 09:23:58;;;;;;;83.53;61.33;;;5.90;95.70;;;;;;5055466;28;20574;-90
2024/03/12 09:26:24;;;;;;;82.83;60.67;;;5.90;95.80;;;;;;5056100;28;20262;-90
2024/03/12 09:28:50;;;;;;;83.67;60.13;;;6.00;95.80;;;;;;5055469;28;20182;-90
2024/03/12 09:31:15;;;;;;;84.10;60.77;;;6.10;95.80;;;;;;5055176;28;20246;-90
2024/03/12 09:33:41;;;;;;;86.43;60.13;;;6.20;95.80;;;;;;5055427;28;20229;-90
2024/03/12 09:36:07;;;;;;;81.03;58.63;;;6.30;95.80;;;;;;5055464;28;20180;-90
2024/03/12 09:38:33;;;;;;;79.63;58.13;;;6.30;95.80;;;;;;5055216;28;20203;-90
2024/03/12 09:41:03;;;;;;;76.93;55.83;;;6.40;95.80;;;;;;5055221;28;20202;-90
2024/03/12 09:43:35;;;;;;;81.40;55.90;;;6.50;95.80;;;;;;5055319;28;20639;-90
2024/03/12 09:46:01;;;;;;;82.47;56.43;;;6.50;95.80;;;;;;5055821;28;20185;-90
2024/03/12 09:48:27;;;;;;;80.23;57.53;;;6.60;95.80;;;;;;5055220;28;20179;-90
2024/03/12 09:50:52;;;;;;;76.27;53.13;;;6.70;95.80;;;;;;5055400;28;20252;-90
2024/03/12 09:53:20;;;;;;;78.77;53.53;;;6.80;95.80;;;;;;5055180;28;20171;-90
2024/03/12 09:55:47;;;;;;;71.87;51.43;;;6.80;95.80;;;;;;5056005;28;20175;-90
2024/03/12 09:58:13;;;;;;;68.53;50.07;;;6.90;95.70;;;;;;5054935;28;20178;-90
2024/03/12 10:00:38;;;;;;;73.77;49.23;;;6.90;95.70;;;;;;5055443;28;20290;-90
2024/03/12 10:03:04;;;;;;;62.17;47.23;;;7.00;95.70;;;;;;5055142;28;20178;-91
2024/03/12 10:05:31;;;;;;;62.67;46.33;;;7.00;95.70;;;;;;5055453;28;20196;-92
2024/03/12 10:08:14;;;;;;;57.50;44.07;;;7.10;95.70;;;;;;5055044;28;20203;-91
2024/03/12 10:10:46;;;;;;;57.67;45.40;;;7.20;95.60;;;;;;5054835;28;20198;-91
2024/03/12 10:13:14;;;;;;;52.33;42.00;;;7.20;95.60;;;;;;5054920;28;20600;-88
2024/03/12 10:16:17;;;;;;;56.50;44.77;;;7.20;95.50;;;;;;5072756;28;20175;-88
2024/03/12 10:18:45;;;;;;;50.17;39.70;;;7.30;95.50;;;;;;5042722;28;20187;-88
2024/03/12 10:21:10;;;;;;;52.90;40.90;;;7.40;95.40;;;;;;5054710;28;20229;-88
2024/03/12 10:23:37;;;;;;;51.27;40.90;;;7.50;95.30;;;;;;5054720;28;20175;-88
2024/03/12 10:26:11;;;;;;;51.20;41.17;;;7.60;95.20;;;;;;5076624;28;20250;-88
2024/03/12 10:28:40;;;;;;;50.10;39.67;;;7.70;95.10;;;;;;5076559;28;20186;-88
2024/03/12 10:31:11;;;;;;;49.23;41.57;;;7.80;94.70;;;;;;5058451;28;20195;-88
2024/03/12 10:33:40;;;;;;;50.47;43.77;;;8.00;94.60;;;;;;5076427;28;20235;-88
2024/03/12 10:36:10;;;;;;;47.37;40.90;;;8.00;94.00;;;;;;5058484;28;20183;-88
2024/03/12 10:38:37;;;;;;;51.37;43.90;;;8.00;93.50;;;;;;5076336;28;20225;-88
2024/03/12 10:41:17;;;;;;;47.10;42.07;;;8.20;93.10;;;;;;5058380;28;20195;-88
2024/03/12 10:43:45;;;;;;;48.20;42.93;;;8.20;92.50;;;;;;5058403;28;20643;-88
2024/03/12 10:46:12;;;;;;;50.20;44.97;;;8.30;92.60;;;;;;5058265;28;20589;-89
2024/03/12 10:48:40;;;;;;;53.57;46.93;;;8.40;92.50;;;;;;5058368;28;20175;-88
2024/03/12 10:51:08;;;;;;;50.70;45.33;;;8.50;92.30;;;;;;5057988;28;20211;-88
2024/03/12 10:53:33;;;;;;;50.53;45.03;;;8.60;91.70;;;;;;5076341;28;20167;-88
2024/03/12 10:56:01;;;;;;;52.97;47.20;;;8.70;91.60;;;;;;5076327;28;20170;-88
2024/03/12 10:58:28;;;;;;;55.70;46.83;;;8.80;91.40;;;;;;5058082;28;20206;-88
2024/03/12 11:00:55;;;;;;;63.93;49.43;;;8.80;91.30;;;;;;5075926;28;20792;-88
2024/03/12 11:03:23;;;;;;;54.43;47.73;;;8.90;91.50;;;;;;5058039;28;20175;-89
2024/03/12 11:05:53;;;;;;;59.63;50.27;;;8.80;91.00;;;;;;5058023;28;20196;-88
2024/03/12 11:08:19;;;;;;;61.70;50.90;;;8.80;91.00;;;;;;5075836;28;20158;-88
2024/03/12 11:10:46;;;;;;;66.37;51.40;;;8.70;90.70;;;;;;5057771;28;20199;-88
2024/03/12 11:13:13;;;;;;;58.93;47.23;;;8.80;90.90;;;;;;5057928;28;20225;-88
2024/03/12 11:15:40;;;;;;;57.47;48.63;;;8.70;90.70;;;;;;5057920;28;20556;-88
2024/03/12 11:18:06;;;;;;;55.43;47.27;;;8.70;90.80;;;;;;5057716;28;20182;-88
2024/03/12 11:20:33;;;;;;;56.80;49.40;;;8.70;90.90;;;;;;5057700;28;20191;-88
2024/03/12 11:23:00;;;;;;;59.50;48.77;;;8.70;90.80;;;;;;5057691;28;20578;-89
2024/03/12 11:25:32;;;;;;;60.80;51.60;;;8.80;90.80;;;;;;5075421;28;20202;-89
2024/03/12 11:28:20;;;;;;;63.03;52.13;;;8.80;90.90;;;;;;5057531;28;20550;-88
2024/03/12 11:30:48;;;;;;;62.83;50.10;;;8.90;90.80;;;;;;5057460;28;20218;-88
2024/03/12 11:33:52;;;;;;;64.73;50.93;;;8.90;90.50;;;;;;5057550;28;20171;-88
2024/03/12 11:36:25;;;;;;;63.57;51.50;;;9.00;90.50;;;;;;5074287;28;20158;-89
2024/03/12 11:38:51;;;;;;;61.83;51.27;;;9.00;90.40;;;;;;5058117;28;20168;-91
2024/03/12 11:41:21;;;;;;;57.73;49.87;;;9.10;90.30;;;;;;5075293;28;20225;-91
2024/03/12 11:43:47;;;;;;;57.80;46.53;;;9.20;89.90;;;;;;5075446;28;20164;-90
2024/03/12 11:46:20;;;;;;;63.60;47.30;;;9.30;89.80;;;;;;5057282;28;20171;-90
2024/03/12 11:48:47;;;;;;;59.20;47.73;;;9.50;89.70;;;;;;5057044;28;20171;-89
2024/03/12 11:51:13;;;;;;;61.50;47.73;;;9.60;89.80;;;;;;5057319;28;20682;-90
2024/03/12 11:53:41;;;;;;;59.97;49.00;;;9.70;89.50;;;;;;5057103;28;20584;-90
2024/03/12 11:56:11;;;;;;;58.77;48.90;;;9.70;88.90;;;;;;5057040;28;20171;-90
2024/03/12 11:58:47;;;;;;;59.37;47.47;;;9.80;88.80;;;;;;5056939;28;20171;-90
2024/03/12 12:01:20;;;;;;;56.00;47.03;;;9.80;88.20;;;;;;5056873;28;20575;-90
2024/03/12 12:04:12;;;;;;;58.90;49.73;;;10.00;88.30;;;;;;5057047;28;20537;-90
2024/03/12 12:06:38;;;;;;;54.70;44.70;;;9.90;87.70;;;;;;5057793;28;20163;-88
2024/03/12 12:09:08;;;;;;;51.87;46.00;;;10.10;87.40;;;;;;5074577;28;20523;-89
2024/03/12 12:11:36;;;;;;;52.17;44.00;;;10.20;86.90;;;;;;5056701;28;20168;-89
2024/03/12 12:14:04;;;;;;;49.53;43.27;;;10.10;86.50;;;;;;5056704;28;20258;-89
2024/03/12 12:16:30;;;;;;;55.73;46.23;;;10.10;86.00;;;;;;5074500;28;20171;-89
2024/03/12 12:19:06;;;;;;;51.53;45.67;;;10.00;86.60;;;;;;5074330;28;20249;-89
2024/03/12 12:21:33;;;;;;;52.47;45.87;;;10.30;86.40;;;;;;5056588;28;20178;-89
2024/03/12 12:24:01;;;;;;;51.60;44.73;;;10.30;86.20;;;;;;5056439;28;20678;-89
2024/03/12 12:26:29;;;;;;;50.77;44.37;;;10.30;85.80;;;;;;5056409;28;20178;-89
2024/03/12 12:28:57;;;;;;;53.17;45.10;;;10.30;85.50;;;;;;5057488;28;20187;-89
2024/03/12 12:31:24;;;;;;;51.60;45.47;;;10.40;86.10;;;;;;5056745;28;20171;-89
2024/03/12 12:33:55;;;;;;;52.30;45.57;;;10.50;86.10;;;;;;5074174;28;20254;-88
2024/03/12 12:36:27;;;;;;;52.13;45.90;;;10.40;85.60;;;;;;5074351;28;20182;-88
2024/03/12 12:38:54;;;;;;;53.50;45.30;;;10.40;84.50;;;;;;5056271;28;20258;-89
2024/03/12 12:41:22;;;;;;;52.63;45.20;;;10.30;85.20;;;;;;5056224;28;20167;-88